createdAt,value
2023-01-04T00:00:18.689Z,88.22
2023-01-04T00:01:18.682Z,87.87
2023-01-04T00:02:18.719Z,88.12
2023-01-04T00:03:18.740Z,87.60
2023-01-04T00:04:18.650Z,87.60
2023-01-04T00:05:18.637Z,87.71
2023-01-04T00:06:18.638Z,87.29
2023-01-04T00:07:18.613Z,87.60
2023-01-04T00:08:18.586Z,87.15
2023-01-04T00:09:18.581Z,86.32
2023-01-04T00:10:18.564Z,86.43
2023-01-04T00:11:18.578Z,86.43
2023-01-04T00:12:18.566Z,86.63
2023-01-04T00:13:18.543Z,86.53
2023-01-04T00:14:18.525Z,86.43
2023-01-04T00:15:18.517Z,86.78
2023-01-04T00:16:18.575Z,86.43
2023-01-04T00:17:18.531Z,86.32
2023-01-04T00:18:18.494Z,86.43
2023-01-04T00:19:18.511Z,85.95
2023-01-04T00:20:18.486Z,86.57
2023-01-04T00:21:18.478Z,86.47
2023-01-04T00:22:18.452Z,86.68
2023-01-04T00:23:18.509Z,86.57
2023-01-04T00:24:18.446Z,86.57
2023-01-04T00:25:18.438Z,86.68
2023-01-04T00:26:18.417Z,86.68
2023-01-04T00:27:18.403Z,86.68
2023-01-04T00:28:18.396Z,86.47
2023-01-04T00:29:18.407Z,86.47
2023-01-04T00:30:18.378Z,86.57
2023-01-04T00:31:18.432Z,86.36
2023-01-04T00:32:18.375Z,86.51
2023-01-04T00:33:18.354Z,87.13
2023-01-04T00:34:18.338Z,87.02
2023-01-04T00:35:44.192Z,87.74
2023-01-04T00:36:20.319Z,87.58
2023-01-04T00:37:18.315Z,87.58
2023-01-04T00:38:18.315Z,87.68
2023-01-04T00:39:18.346Z,88.10
2023-01-04T00:40:18.288Z,87.79
2023-01-04T00:41:49.226Z,87.79
2023-01-04T00:42:20.258Z,88.10
2023-01-04T00:43:18.255Z,87.99
2023-01-04T00:44:18.266Z,88.20
2023-01-04T00:45:18.257Z,87.89
2023-01-04T00:46:18.271Z,88.10
2023-01-04T00:47:18.226Z,87.68
2023-01-04T00:48:18.221Z,87.79
2023-01-04T00:49:18.228Z,87.68
2023-01-04T00:50:18.179Z,87.79
2023-01-04T00:51:18.189Z,87.79
2023-01-04T00:52:18.175Z,87.68
2023-01-04T00:53:18.148Z,87.99
2023-01-04T00:54:18.161Z,88.45
2023-01-04T00:55:18.147Z,88.20
2023-01-04T00:56:18.145Z,88.34
2023-01-04T00:57:18.125Z,88.51
2023-01-04T00:58:18.111Z,87.93
2023-01-04T00:59:18.109Z,88.24
2023-01-04T01:00:18.095Z,88.14
2023-01-04T01:01:18.217Z,88.65
2023-01-04T01:02:18.266Z,88.24
2023-01-04T01:03:18.124Z,88.28
2023-01-04T01:04:18.144Z,88.65
2023-01-04T01:05:18.042Z,88.18
2023-01-04T01:06:18.048Z,88.14
2023-01-04T01:07:18.022Z,88.24
2023-01-04T01:08:18.003Z,88.18
2023-01-04T01:09:18.015Z,88.04
2023-01-04T01:10:17.999Z,88.14
2023-01-04T01:11:19.001Z,88.34
2023-01-04T01:12:17.983Z,88.24
2023-01-04T01:13:17.965Z,88.65
2023-01-04T01:14:17.957Z,88.80
2023-01-04T01:15:17.953Z,88.34
2023-01-04T01:16:27.351Z,88.65
2023-01-04T01:17:18.931Z,88.59
2023-01-04T01:18:17.926Z,88.45
2023-01-04T01:19:17.935Z,88.65
2023-01-04T01:20:17.906Z,89.22
2023-01-04T01:21:17.901Z,89.32
2023-01-04T01:22:17.908Z,89.01
2023-01-04T01:23:17.867Z,89.32
2023-01-04T01:24:17.849Z,89.32
2023-01-04T01:25:17.854Z,89.25
2023-01-04T01:26:17.830Z,90.14
2023-01-04T01:27:17.861Z,89.32
2023-01-04T01:28:17.797Z,89.73
2023-01-04T01:29:17.813Z,89.73
2023-01-04T01:30:17.792Z,89.67
2023-01-04T01:31:17.818Z,89.56
2023-01-04T01:32:17.790Z,89.98
2023-01-04T01:33:17.772Z,89.77
2023-01-04T01:34:17.783Z,89.77
2023-01-04T01:35:17.742Z,90.02
2023-01-04T01:36:17.744Z,90.02
2023-01-04T01:37:17.745Z,90.23
2023-01-04T01:38:17.719Z,90.64
2023-01-04T01:39:17.785Z,90.74
2023-01-04T01:40:17.701Z,90.74
2023-01-04T01:41:17.700Z,90.74
2023-01-04T01:42:49.580Z,90.74
2023-01-04T01:43:17.689Z,90.53
2023-01-04T01:44:17.717Z,91.26
2023-01-04T01:45:17.658Z,91.26
2023-01-04T01:46:17.737Z,91.36
2023-01-04T01:47:17.690Z,90.53
2023-01-04T01:48:17.650Z,91.26
2023-01-04T01:49:18.630Z,91.26
2023-01-04T01:50:18.621Z,91.16
2023-01-04T01:51:17.614Z,91.05
2023-01-04T01:52:17.612Z,91.26
2023-01-04T01:53:17.574Z,91.16
2023-01-04T01:54:17.591Z,91.16
2023-01-04T01:55:17.562Z,90.95
2023-01-04T01:56:17.584Z,91.26
2023-01-04T01:57:17.566Z,91.26
2023-01-04T01:58:17.516Z,91.26
2023-01-04T01:59:17.515Z,90.95
2023-01-04T02:00:17.526Z,91.05
2023-01-04T02:01:17.561Z,90.84
2023-01-04T02:02:17.655Z,90.95
2023-01-04T02:03:17.566Z,90.74
2023-01-04T02:04:17.474Z,90.74
2023-01-04T02:05:17.454Z,90.70
2023-01-04T02:06:17.458Z,90.02
2023-01-04T02:07:17.474Z,89.87
2023-01-04T02:08:17.479Z,90.29
2023-01-04T02:09:17.426Z,89.77
2023-01-04T02:10:17.414Z,89.98
2023-01-04T02:11:17.407Z,90.19
2023-01-04T02:12:17.402Z,89.87
2023-01-04T02:13:17.417Z,90.08
2023-01-04T02:14:17.377Z,89.98
2023-01-04T02:15:17.397Z,90.29
2023-01-04T02:16:17.426Z,90.29
2023-01-04T02:17:17.360Z,89.83
2023-01-04T02:18:17.337Z,89.87
2023-01-04T02:19:17.344Z,89.73
2023-01-04T02:20:17.346Z,89.22
2023-01-04T02:21:17.304Z,89.22
2023-01-04T02:22:17.307Z,89.32
2023-01-04T02:23:17.309Z,89.52
2023-01-04T02:24:17.316Z,89.11
2023-01-04T02:25:17.289Z,89.22
2023-01-04T02:26:17.271Z,89.52
2023-01-04T02:27:17.278Z,89.46
2023-01-04T02:28:17.282Z,89.52
2023-01-04T02:29:17.241Z,89.15
2023-01-04T02:30:17.222Z,89.83
2023-01-04T02:31:17.291Z,89.42
2023-01-04T02:32:17.209Z,89.42
2023-01-04T02:33:17.214Z,89.32
2023-01-04T02:34:17.209Z,89.73
2023-01-04T02:35:17.198Z,89.52
2023-01-04T02:36:17.193Z,89.22
2023-01-04T02:37:17.153Z,89.22
2023-01-04T02:38:17.190Z,89.42
2023-01-04T02:39:17.137Z,89.42
2023-01-04T02:40:17.134Z,89.62
2023-01-04T02:41:17.134Z,89.42
2023-01-04T02:42:17.127Z,89.42
2023-01-04T02:43:17.155Z,89.01
2023-01-04T02:44:17.092Z,89.22
2023-01-04T02:45:17.064Z,89.11
2023-01-04T02:46:17.141Z,89.22
2023-01-04T02:47:17.061Z,89.22
2023-01-04T02:48:17.049Z,89.52
2023-01-04T02:49:17.070Z,89.11
2023-01-04T02:50:17.044Z,89.22
2023-01-04T02:51:17.006Z,89.22
2023-01-04T02:52:17.010Z,89.01
2023-01-04T02:53:17.004Z,89.01
2023-01-04T02:54:17.001Z,88.80
2023-01-04T02:55:16.969Z,88.86
2023-01-04T02:56:16.963Z,88.90
2023-01-04T02:57:16.970Z,88.45
2023-01-04T02:58:16.968Z,88.65
2023-01-04T02:59:16.932Z,88.76
2023-01-04T03:00:16.925Z,88.04
2023-01-04T03:01:17.080Z,88.34
2023-01-04T03:02:17.017Z,88.31
2023-01-04T03:03:17.015Z,88.04
2023-01-04T03:04:16.886Z,87.93
2023-01-04T03:05:16.888Z,87.99
2023-01-04T03:06:16.954Z,87.99
2023-01-04T03:07:16.859Z,87.99
2023-01-04T03:08:16.862Z,87.89
2023-01-04T03:09:16.870Z,87.68
2023-01-04T03:10:16.871Z,87.68
2023-01-04T03:11:16.824Z,87.37
2023-01-04T03:12:16.824Z,87.23
2023-01-04T03:13:16.831Z,87.37
2023-01-04T03:14:30.734Z,87.54
2023-01-04T03:15:17.799Z,87.65
2023-01-04T03:16:16.781Z,87.65
2023-01-04T03:17:16.798Z,87.54
2023-01-04T03:18:16.768Z,87.74
2023-01-04T03:19:16.764Z,87.34
2023-01-04T03:20:16.729Z,87.54
2023-01-04T03:21:16.754Z,87.65
2023-01-04T03:22:16.750Z,87.65
2023-01-04T03:23:16.723Z,87.74
2023-01-04T03:24:16.714Z,87.92
2023-01-04T03:25:16.700Z,87.54
2023-01-04T03:26:16.691Z,87.85
2023-01-04T03:27:16.681Z,86.98
2023-01-04T03:28:16.655Z,87.50
2023-01-04T03:29:16.660Z,87.34
2023-01-04T03:30:16.648Z,86.78
2023-01-04T03:31:16.689Z,87.29
2023-01-04T03:32:16.619Z,87.92
2023-01-04T03:33:16.601Z,87.02
2023-01-04T03:34:16.620Z,87.50
2023-01-04T03:35:16.599Z,87.92
2023-01-04T03:36:16.619Z,87.95
2023-01-04T03:37:16.570Z,87.60
2023-01-04T03:38:16.562Z,87.40
2023-01-04T03:39:16.571Z,87.19
2023-01-04T03:40:16.563Z,86.47
2023-01-04T03:41:16.558Z,86.57
2023-01-04T03:42:16.539Z,86.57
2023-01-04T03:43:16.536Z,86.36
2023-01-04T03:44:16.512Z,87.08
2023-01-04T03:45:16.505Z,87.08
2023-01-04T03:46:16.567Z,87.81
2023-01-04T03:47:16.519Z,87.19
2023-01-04T03:48:16.469Z,87.19
2023-01-04T03:49:16.509Z,87.50
2023-01-04T03:50:16.492Z,87.08
2023-01-04T03:51:16.472Z,86.36
2023-01-04T03:52:16.424Z,86.32
2023-01-04T03:53:16.461Z,86.63
2023-01-04T03:54:16.416Z,86.68
2023-01-04T03:55:16.399Z,86.43
2023-01-04T03:56:16.409Z,86.22
2023-01-04T03:57:16.391Z,85.97
2023-01-04T03:58:16.367Z,86.08
2023-01-04T03:59:16.354Z,85.50
2023-01-04T04:00:16.360Z,85.46
2023-01-04T04:01:16.520Z,85.67
2023-01-04T04:02:16.396Z,85.87
2023-01-04T04:03:16.319Z,85.67
2023-01-04T04:04:16.404Z,85.77
2023-01-04T04:05:16.305Z,86.02
2023-01-04T04:06:16.323Z,85.67
2023-01-04T04:07:16.289Z,86.18
2023-01-04T04:08:17.289Z,86.29
2023-01-04T04:09:16.250Z,85.97
2023-01-04T04:10:16.254Z,86.18
2023-01-04T04:11:16.254Z,85.81
2023-01-04T04:12:16.223Z,86.60
2023-01-04T04:13:16.243Z,86.39
2023-01-04T04:14:16.226Z,86.49
2023-01-04T04:15:16.245Z,86.60
2023-01-04T04:16:16.214Z,86.49
2023-01-04T04:17:16.199Z,86.29
2023-01-04T04:18:16.161Z,86.32
2023-01-04T04:19:16.159Z,87.11
2023-01-04T04:20:16.163Z,87.32
2023-01-04T04:21:16.173Z,86.53
2023-01-04T04:22:16.141Z,87.83
2023-01-04T04:23:16.109Z,87.52
2023-01-04T04:24:16.122Z,87.32
2023-01-04T04:25:16.116Z,87.42
2023-01-04T04:26:16.082Z,87.52
2023-01-04T04:27:16.076Z,87.93
2023-01-04T04:28:16.099Z,87.83
2023-01-04T04:29:16.053Z,87.93
2023-01-04T04:30:16.058Z,87.93
2023-01-04T04:31:16.048Z,88.08
2023-01-04T04:32:16.165Z,88.49
2023-01-04T04:33:16.050Z,88.70
2023-01-04T04:34:16.007Z,88.59
2023-01-04T04:35:16.000Z,89.22
2023-01-04T04:36:15.998Z,89.52
2023-01-04T04:37:15.986Z,89.01
2023-01-04T04:38:15.974Z,89.62
2023-01-04T04:39:15.971Z,89.22
2023-01-04T04:40:15.961Z,89.52
2023-01-04T04:41:15.933Z,89.73
2023-01-04T04:42:15.937Z,89.52
2023-01-04T04:43:15.925Z,89.73
2023-01-04T04:44:15.955Z,90.04
2023-01-04T04:45:15.894Z,89.83
2023-01-04T04:46:15.918Z,90.45
2023-01-04T04:47:15.892Z,90.25
2023-01-04T04:48:15.892Z,90.35
2023-01-04T04:49:15.873Z,90.86
2023-01-04T04:50:15.893Z,90.86
2023-01-04T04:51:15.837Z,90.86
2023-01-04T04:52:15.839Z,90.97
2023-01-04T04:53:15.828Z,91.28
2023-01-04T04:54:15.835Z,91.28
2023-01-04T04:55:15.826Z,90.97
2023-01-04T04:56:15.823Z,91.69
2023-01-04T04:57:15.790Z,91.28
2023-01-04T04:58:15.781Z,90.97
2023-01-04T04:59:15.762Z,91.01
2023-01-04T05:00:15.756Z,91.52
2023-01-04T05:01:15.854Z,91.69
2023-01-04T05:02:16.089Z,92.10
2023-01-04T05:03:15.841Z,92.25
2023-01-04T05:04:15.739Z,92.00
2023-01-04T05:05:15.714Z,92.14
2023-01-04T05:06:15.704Z,92.46
2023-01-04T05:07:15.681Z,92.41
2023-01-04T05:08:15.708Z,92.97
2023-01-04T05:09:15.673Z,92.72
2023-01-04T05:10:15.673Z,92.86
2023-01-04T05:11:15.664Z,93.07
2023-01-04T05:12:15.664Z,92.97
2023-01-04T05:13:15.665Z,93.28
2023-01-04T05:14:15.612Z,93.38
2023-01-04T05:15:16.619Z,93.69
2023-01-04T05:16:15.642Z,93.90
2023-01-04T05:17:16.570Z,93.59
2023-01-04T05:18:15.576Z,93.90
2023-01-04T05:19:15.587Z,94.00
2023-01-04T05:20:15.563Z,93.90
2023-01-04T05:21:19.951Z,93.90
2023-01-04T05:22:16.554Z,93.79
2023-01-04T05:23:15.536Z,93.49
2023-01-04T05:24:15.527Z,94.00
2023-01-04T05:25:15.576Z,93.79
2023-01-04T05:26:15.502Z,93.79
2023-01-04T05:27:15.510Z,94.10
2023-01-04T05:28:15.489Z,94.00
2023-01-04T05:29:15.471Z,94.00
2023-01-04T05:30:15.496Z,93.79
2023-01-04T05:31:15.536Z,94.10
2023-01-04T05:32:15.511Z,94.10
2023-01-04T05:33:16.438Z,93.85
2023-01-04T05:34:21.937Z,94.21
2023-01-04T05:35:17.427Z,93.79
2023-01-04T05:36:15.461Z,94.10
2023-01-04T05:37:15.399Z,94.42
2023-01-04T05:38:15.401Z,94.52
2023-01-04T05:39:15.435Z,94.42
2023-01-04T05:40:15.424Z,94.42
2023-01-04T05:41:15.384Z,94.72
2023-01-04T05:42:15.336Z,94.62
2023-01-04T05:43:15.352Z,94.72
2023-01-04T05:44:15.329Z,94.52
2023-01-04T05:45:15.329Z,95.03
2023-01-04T05:46:15.392Z,95.03
2023-01-04T05:47:15.493Z,95.14
2023-01-04T05:48:15.293Z,94.62
2023-01-04T05:49:15.273Z,94.72
2023-01-04T05:50:15.271Z,95.45
2023-01-04T05:51:15.310Z,95.34
2023-01-04T05:52:15.249Z,95.34
2023-01-04T05:53:15.237Z,95.65
2023-01-04T05:54:20.846Z,95.45
2023-01-04T05:55:16.211Z,94.72
2023-01-04T05:56:15.202Z,95.14
2023-01-04T05:57:15.233Z,95.14
2023-01-04T05:58:15.190Z,95.45
2023-01-04T05:59:15.171Z,95.34
2023-01-04T06:00:15.165Z,95.45
2023-01-04T06:01:15.211Z,95.24
2023-01-04T06:02:15.336Z,94.72
2023-01-04T06:03:15.323Z,94.72
2023-01-04T06:04:15.167Z,94.72
2023-01-04T06:05:15.134Z,94.93
2023-01-04T06:06:15.106Z,94.93
2023-01-04T06:07:15.122Z,95.03
2023-01-04T06:08:15.117Z,94.93
2023-01-04T06:09:15.069Z,95.09
2023-01-04T06:10:15.086Z,95.24
2023-01-04T06:11:15.085Z,94.52
2023-01-04T06:12:15.155Z,94.82
2023-01-04T06:13:15.057Z,95.03
2023-01-04T06:14:15.062Z,94.72
2023-01-04T06:15:16.043Z,94.72
2023-01-04T06:16:15.065Z,94.52
2023-01-04T06:17:15.147Z,94.10
2023-01-04T06:18:15.012Z,94.10
2023-01-04T06:19:14.994Z,94.82
2023-01-04T06:20:14.969Z,94.10
2023-01-04T06:21:14.988Z,94.42
2023-01-04T06:22:14.970Z,94.31
2023-01-04T06:23:14.967Z,93.85
2023-01-04T06:24:14.951Z,93.59
2023-01-04T06:25:14.987Z,93.65
2023-01-04T06:26:14.930Z,93.28
2023-01-04T06:27:14.922Z,93.24
2023-01-04T06:28:14.902Z,93.24
2023-01-04T06:29:14.902Z,93.44
2023-01-04T06:30:14.893Z,93.24
2023-01-04T06:31:14.983Z,93.24
2023-01-04T06:32:14.879Z,93.03
2023-01-04T06:33:14.868Z,93.03
2023-01-04T06:34:14.866Z,93.24
2023-01-04T06:35:14.846Z,93.24
2023-01-04T06:36:19.836Z,92.82
2023-01-04T06:37:14.823Z,92.41
2023-01-04T06:38:14.799Z,92.06
2023-01-04T06:39:14.802Z,92.27
2023-01-04T06:40:14.793Z,92.37
2023-01-04T06:41:14.791Z,92.00
2023-01-04T06:42:14.771Z,92.41
2023-01-04T06:43:14.761Z,92.37
2023-01-04T06:44:14.769Z,92.47
2023-01-04T06:45:14.739Z,92.27
2023-01-04T06:46:14.779Z,92.27
2023-01-04T06:47:14.751Z,92.06
2023-01-04T06:48:17.825Z,92.16
2023-01-04T06:49:14.696Z,92.00
2023-01-04T06:50:14.684Z,92.06
2023-01-04T06:51:14.681Z,91.89
2023-01-04T06:52:14.694Z,92.27
2023-01-04T06:53:14.662Z,91.96
2023-01-04T06:54:14.661Z,92.06
2023-01-04T06:55:14.652Z,91.64
2023-01-04T06:56:14.632Z,91.75
2023-01-04T06:57:14.633Z,91.64
2023-01-04T06:58:14.618Z,91.64
2023-01-04T06:59:14.634Z,91.44
2023-01-04T07:00:14.589Z,91.64
2023-01-04T07:01:14.627Z,91.03
2023-01-04T07:02:14.706Z,91.24
2023-01-04T07:03:16.217Z,90.82
2023-01-04T07:04:15.587Z,90.67
2023-01-04T07:05:14.565Z,91.24
2023-01-04T07:06:15.557Z,90.72
2023-01-04T07:07:14.516Z,90.82
2023-01-04T07:08:14.501Z,90.82
2023-01-04T07:09:14.521Z,91.13
2023-01-04T07:10:14.517Z,91.09
2023-01-04T07:11:14.485Z,90.16
2023-01-04T07:12:14.499Z,90.47
2023-01-04T07:13:14.460Z,90.26
2023-01-04T07:14:14.462Z,90.10
2023-01-04T07:15:38.090Z,90.78
2023-01-04T07:16:15.540Z,90.82
2023-01-04T07:17:14.416Z,90.88
2023-01-04T07:18:14.432Z,90.61
2023-01-04T07:19:14.412Z,90.16
2023-01-04T07:20:14.403Z,90.99
2023-01-04T07:21:14.421Z,91.03
2023-01-04T07:22:14.388Z,91.54
2023-01-04T07:23:14.359Z,90.88
2023-01-04T07:24:14.353Z,90.72
2023-01-04T07:25:14.347Z,90.78
2023-01-04T07:26:14.336Z,90.78
2023-01-04T07:27:14.396Z,90.78
2023-01-04T07:28:14.309Z,90.67
2023-01-04T07:29:14.310Z,90.78
2023-01-04T07:30:14.299Z,91.30
2023-01-04T07:31:14.338Z,91.03
2023-01-04T07:32:14.480Z,91.09
2023-01-04T07:33:14.292Z,91.50
2023-01-04T07:34:14.375Z,91.50
2023-01-04T07:35:14.254Z,91.81
2023-01-04T07:36:14.229Z,91.40
2023-01-04T07:37:14.225Z,91.60
2023-01-04T07:38:14.221Z,91.40
2023-01-04T07:39:14.218Z,91.81
2023-01-04T07:40:14.203Z,91.60
2023-01-04T07:41:15.235Z,91.50
2023-01-04T07:42:22.500Z,91.30
2023-01-04T07:43:14.173Z,91.30
2023-01-04T07:44:14.158Z,91.40
2023-01-04T07:45:14.158Z,91.71
2023-01-04T07:46:14.232Z,91.40
2023-01-04T07:47:14.121Z,91.40
2023-01-04T07:48:14.123Z,91.30
2023-01-04T07:49:17.487Z,91.71
2023-01-04T07:50:15.127Z,91.71
2023-01-04T07:51:14.116Z,91.50
2023-01-04T07:52:14.079Z,91.64
2023-01-04T07:53:14.056Z,91.71
2023-01-04T07:54:14.084Z,91.30
2023-01-04T07:55:14.056Z,91.50
2023-01-04T07:56:18.789Z,91.30
2023-01-04T07:57:15.027Z,91.19
2023-01-04T07:58:14.024Z,91.19
2023-01-04T07:59:14.033Z,91.40
2023-01-04T08:00:14.011Z,90.67
2023-01-04T08:01:14.078Z,90.88
2023-01-04T08:02:14.108Z,91.30
2023-01-04T08:03:13.995Z,91.30
2023-01-04T08:04:13.998Z,91.50
2023-01-04T08:05:14.014Z,91.40
2023-01-04T08:06:13.984Z,91.60
2023-01-04T08:07:13.944Z,91.19
2023-01-04T08:08:13.917Z,91.60
2023-01-04T08:09:13.913Z,91.30
2023-01-04T08:10:13.913Z,91.50
2023-01-04T08:11:13.879Z,91.50
2023-01-04T08:12:13.922Z,91.60
2023-01-04T08:13:13.880Z,91.30
2023-01-04T08:14:13.864Z,91.09
2023-01-04T08:15:13.854Z,91.40
2023-01-04T08:16:13.964Z,90.94
2023-01-04T08:17:13.849Z,91.50
2023-01-04T08:18:13.860Z,91.81
2023-01-04T08:19:13.822Z,91.50
2023-01-04T08:20:13.809Z,91.05
2023-01-04T08:21:13.811Z,90.99
2023-01-04T08:22:13.791Z,91.15
2023-01-04T08:23:13.787Z,90.88
2023-01-04T08:24:13.789Z,90.73
2023-01-04T08:25:13.796Z,90.78
2023-01-04T08:26:13.743Z,90.88
2023-01-04T08:27:13.747Z,91.19
2023-01-04T08:28:13.738Z,91.09
2023-01-04T08:29:13.724Z,91.05
2023-01-04T08:30:13.741Z,90.22
2023-01-04T08:31:13.729Z,90.22
2023-01-04T08:32:13.700Z,90.33
2023-01-04T08:33:13.689Z,90.73
2023-01-04T08:34:13.702Z,90.01
2023-01-04T08:35:13.655Z,90.53
2023-01-04T08:36:13.647Z,90.12
2023-01-04T08:37:13.641Z,90.43
2023-01-04T08:38:56.208Z,90.64
2023-01-04T08:39:15.633Z,90.64
2023-01-04T08:40:13.635Z,90.94
2023-01-04T08:41:39.391Z,90.84
2023-01-04T08:42:24.749Z,90.12
2023-01-04T08:43:15.593Z,90.12
2023-01-04T08:44:13.568Z,90.22
2023-01-04T08:45:13.590Z,90.33
2023-01-04T08:46:13.703Z,90.53
2023-01-04T08:47:13.570Z,90.28
2023-01-04T08:48:13.542Z,90.01
2023-01-04T08:49:13.523Z,90.33
2023-01-04T08:50:13.544Z,90.22
2023-01-04T08:51:13.510Z,89.81
2023-01-04T08:52:13.533Z,90.59
2023-01-04T08:53:13.494Z,90.12
2023-01-04T08:54:13.481Z,90.12
2023-01-04T08:55:15.918Z,90.43
2023-01-04T08:56:14.455Z,90.22
2023-01-04T08:57:13.471Z,89.81
2023-01-04T08:58:13.452Z,90.01
2023-01-04T08:59:13.447Z,90.94
2023-01-04T09:00:13.441Z,90.12
2023-01-04T09:01:13.487Z,90.64
2023-01-04T09:02:13.551Z,90.12
2023-01-04T09:03:13.476Z,90.53
2023-01-04T09:04:13.535Z,90.53
2023-01-04T09:05:22.427Z,90.39
2023-01-04T09:06:14.362Z,90.22
2023-01-04T09:07:13.401Z,90.22
2023-01-04T09:08:13.334Z,90.12
2023-01-04T09:09:13.338Z,90.08
2023-01-04T09:10:13.506Z,89.97
2023-01-04T09:11:13.306Z,90.84
2023-01-04T09:12:13.310Z,90.12
2023-01-04T09:13:13.306Z,90.73
2023-01-04T09:14:13.285Z,90.53
2023-01-04T09:15:13.288Z,90.64
2023-01-04T09:16:13.325Z,90.64
2023-01-04T09:17:13.279Z,91.00
2023-01-04T09:18:31.801Z,90.69
2023-01-04T09:19:21.443Z,90.49
2023-01-04T09:20:14.241Z,90.64
2023-01-04T09:21:14.227Z,90.53
2023-01-04T09:22:13.301Z,90.69
2023-01-04T09:23:13.210Z,90.73
2023-01-04T09:24:13.192Z,90.59
2023-01-04T09:25:13.202Z,91.05
2023-01-04T09:26:13.158Z,90.39
2023-01-04T09:27:13.170Z,90.59
2023-01-04T09:28:13.160Z,91.31
2023-01-04T09:29:13.158Z,91.21
2023-01-04T09:30:13.143Z,91.52
2023-01-04T09:31:13.156Z,91.42
2023-01-04T09:32:16.834Z,91.52
2023-01-04T09:33:14.133Z,91.66
2023-01-04T09:34:16.624Z,91.77
2023-01-04T09:35:14.075Z,92.14
2023-01-04T09:36:13.080Z,92.14
2023-01-04T09:37:13.066Z,92.14
2023-01-04T09:38:13.073Z,92.86
2023-01-04T09:39:20.950Z,92.49
2023-01-04T09:40:14.052Z,92.59
2023-01-04T09:41:13.042Z,92.34
2023-01-04T09:42:13.018Z,92.14
2023-01-04T09:43:21.114Z,92.24
2023-01-04T09:44:14.010Z,91.93
2023-01-04T09:45:23.774Z,91.93
2023-01-04T09:46:15.013Z,92.24
2023-01-04T09:47:13.111Z,92.03
2023-01-04T09:48:12.983Z,91.83
2023-01-04T09:49:12.957Z,91.72
2023-01-04T09:50:12.936Z,91.72
2023-01-04T09:51:12.929Z,91.72
2023-01-04T09:52:12.951Z,91.52
2023-01-04T09:53:12.927Z,91.58
2023-01-04T09:54:12.897Z,91.68
2023-01-04T09:55:40.989Z,91.47
2023-01-04T09:56:13.892Z,91.27
2023-01-04T09:57:12.884Z,91.38
2023-01-04T09:58:12.886Z,91.27
2023-01-04T09:59:12.860Z,91.38
2023-01-04T10:00:12.868Z,91.17
2023-01-04T10:01:12.990Z,91.17
2023-01-04T10:02:13.065Z,91.06
2023-01-04T10:03:12.895Z,91.68
2023-01-04T10:04:12.808Z,91.17
2023-01-04T10:05:12.789Z,90.86
2023-01-04T10:06:12.800Z,91.06
2023-01-04T10:07:12.776Z,91.27
2023-01-04T10:08:12.772Z,91.27
2023-01-04T10:09:12.756Z,91.06
2023-01-04T10:10:12.782Z,91.27
2023-01-04T10:11:12.731Z,91.06
2023-01-04T10:12:12.741Z,90.96
2023-01-04T10:13:12.723Z,91.17
2023-01-04T10:14:12.705Z,91.27
2023-01-04T10:15:12.712Z,90.75
2023-01-04T10:16:12.751Z,91.17
2023-01-04T10:17:14.954Z,91.27
2023-01-04T10:19:36.857Z,90.96
2023-01-04T10:19:59.730Z,91.06
2023-01-04T10:21:17.128Z,91.17
2023-01-04T10:21:30.063Z,91.38
2023-01-04T10:22:14.672Z,91.06
2023-01-04T10:23:12.632Z,91.27
2023-01-04T10:24:12.603Z,91.13
2023-01-04T10:25:12.581Z,91.17
2023-01-04T10:26:13.613Z,90.66
2023-01-04T10:27:12.604Z,91.13
2023-01-04T10:28:12.573Z,90.86
2023-01-04T10:29:12.571Z,90.72
2023-01-04T10:30:12.567Z,91.02
2023-01-04T10:31:38.707Z,91.23
2023-01-04T10:32:13.586Z,91.44
2023-01-04T10:33:13.551Z,90.51
2023-01-04T10:34:18.450Z,91.02
2023-01-04T10:35:14.559Z,90.92
2023-01-04T10:36:12.503Z,91.13
2023-01-04T10:37:12.505Z,90.92
2023-01-04T10:38:12.499Z,90.72
2023-01-04T10:39:12.480Z,90.61
2023-01-04T10:40:12.503Z,90.81
2023-01-04T10:41:12.474Z,90.72
2023-01-04T10:42:12.444Z,91.13
2023-01-04T10:43:12.440Z,91.23
2023-01-04T10:44:14.522Z,91.23
2023-01-04T10:45:13.458Z,90.78
2023-01-04T10:46:12.471Z,90.81
2023-01-04T10:47:12.407Z,90.67
2023-01-04T10:48:12.394Z,90.67
2023-01-04T10:49:12.376Z,90.57
2023-01-04T10:50:12.408Z,90.78
2023-01-04T10:51:12.372Z,90.72
2023-01-04T10:52:12.348Z,90.57
2023-01-04T10:53:12.344Z,90.57
2023-01-04T10:54:12.328Z,90.67
2023-01-04T10:55:12.325Z,90.47
2023-01-04T10:56:25.236Z,90.88
2023-01-04T10:57:13.306Z,90.67
2023-01-04T10:58:12.294Z,90.88
2023-01-04T10:59:12.275Z,90.67
2023-01-04T11:00:12.271Z,90.36
2023-01-04T11:01:12.431Z,90.88
2023-01-04T11:02:12.498Z,90.78
2023-01-04T11:03:12.327Z,91.19
2023-01-04T11:04:12.249Z,90.98
2023-01-04T11:05:12.224Z,90.88
2023-01-04T11:06:12.214Z,90.72
2023-01-04T11:07:12.207Z,90.67
2023-01-04T11:08:12.188Z,90.67
2023-01-04T11:09:13.438Z,91.08
2023-01-04T11:10:13.194Z,90.67
2023-01-04T11:11:12.162Z,90.88
2023-01-04T11:12:12.144Z,90.98
2023-01-04T11:13:12.141Z,90.47
2023-01-04T11:14:12.186Z,90.53
2023-01-04T11:15:12.142Z,90.83
2023-01-04T11:16:12.144Z,90.57
2023-01-04T11:17:12.127Z,90.53
2023-01-04T11:18:12.096Z,90.83
2023-01-04T11:19:12.085Z,90.78
2023-01-04T11:20:12.085Z,91.14
2023-01-04T11:21:12.067Z,91.08
2023-01-04T11:22:12.128Z,90.73
2023-01-04T11:23:12.092Z,90.78
2023-01-04T11:24:31.369Z,91.14
2023-01-04T11:26:14.032Z,90.94
2023-01-04T11:27:12.015Z,90.83
2023-01-04T11:28:12.996Z,90.94
2023-01-04T11:29:11.982Z,90.63
2023-01-04T11:30:12.031Z,90.94
2023-01-04T11:31:12.038Z,90.42
2023-01-04T11:32:12.069Z,90.63
2023-01-04T11:33:11.967Z,90.63
2023-01-04T11:34:11.935Z,90.42
2023-01-04T11:35:11.933Z,90.42
2023-01-04T11:36:11.942Z,90.22
2023-01-04T11:37:11.905Z,90.42
2023-01-04T11:38:11.921Z,90.38
2023-01-04T11:39:11.890Z,90.42
2023-01-04T11:40:11.881Z,90.63
2023-01-04T11:41:11.867Z,90.42
2023-01-04T11:42:11.861Z,90.22
2023-01-04T11:43:11.870Z,90.22
2023-01-04T11:44:11.840Z,90.01
2023-01-04T11:45:11.835Z,89.76
2023-01-04T11:46:11.962Z,90.28
2023-01-04T11:47:11.821Z,90.08
2023-01-04T11:48:14.732Z,89.97
2023-01-04T11:49:12.799Z,89.97
2023-01-04T11:50:11.794Z,89.87
2023-01-04T11:51:16.958Z,89.87
2023-01-04T11:52:13.773Z,90.59
2023-01-04T11:53:11.763Z,89.87
2023-01-04T11:54:11.740Z,89.76
2023-01-04T11:55:11.732Z,90.14
2023-01-04T11:56:11.753Z,90.08
2023-01-04T11:57:12.432Z,90.08
2023-01-04T11:58:12.697Z,90.18
2023-01-04T11:59:11.701Z,89.66
2023-01-04T12:00:11.676Z,90.03
2023-01-04T12:01:11.696Z,89.97
2023-01-04T12:02:11.799Z,90.18
2023-01-04T12:03:11.665Z,89.46
2023-01-04T12:04:11.646Z,89.93
2023-01-04T12:05:11.703Z,89.62
2023-01-04T12:06:11.634Z,89.52
2023-01-04T12:07:11.612Z,89.15
2023-01-04T12:08:11.611Z,89.01
2023-01-04T12:09:11.599Z,89.01
2023-01-04T12:10:11.599Z,89.62
2023-01-04T12:11:11.589Z,89.01
2023-01-04T12:12:15.736Z,89.52
2023-01-04T12:13:11.557Z,89.11
2023-01-04T12:14:11.563Z,89.62
2023-01-04T12:15:11.538Z,89.52
2023-01-04T12:16:11.541Z,89.62
2023-01-04T12:17:11.535Z,89.31
2023-01-04T12:18:11.518Z,89.72
2023-01-04T12:19:11.501Z,89.72
2023-01-04T12:20:16.690Z,89.21
2023-01-04T12:21:13.462Z,89.83
2023-01-04T12:22:11.468Z,89.21
2023-01-04T12:23:11.457Z,89.31
2023-01-04T12:24:11.453Z,89.52
2023-01-04T12:25:11.446Z,89.52
2023-01-04T12:26:11.418Z,89.62
2023-01-04T12:27:11.406Z,89.17
2023-01-04T12:28:11.423Z,89.58
2023-01-04T12:29:11.432Z,89.17
2023-01-04T12:30:11.409Z,88.76
2023-01-04T12:31:12.678Z,88.76
2023-01-04T12:32:11.365Z,88.96
2023-01-04T12:33:11.357Z,89.07
2023-01-04T12:34:11.364Z,89.17
2023-01-04T12:35:11.350Z,89.62
2023-01-04T12:36:11.344Z,89.99
2023-01-04T12:37:11.316Z,90.09
2023-01-04T12:38:11.318Z,89.48
2023-01-04T12:39:11.295Z,89.37
2023-01-04T12:40:11.311Z,89.58
2023-01-04T12:41:11.301Z,89.27
2023-01-04T12:42:11.267Z,90.03
2023-01-04T12:43:11.257Z,89.48
2023-01-04T12:44:11.253Z,89.58
2023-01-04T12:45:11.272Z,89.62
2023-01-04T12:46:11.241Z,89.48
2023-01-04T12:47:11.272Z,89.58
2023-01-04T12:48:11.230Z,90.03
2023-01-04T12:49:11.190Z,89.78
2023-01-04T12:50:11.247Z,89.58
2023-01-04T12:51:30.037Z,89.17
2023-01-04T12:52:30.576Z,89.07
2023-01-04T12:53:30.109Z,89.27